createdAt,value
2023-04-14T00:03:54.377Z,2.95
2023-04-14T00:08:59.285Z,2.90
2023-04-14T00:19:06.610Z,4.10
2023-04-14T00:24:11.416Z,3.28
2023-04-14T00:29:14.636Z,2.78
2023-04-14T00:34:17.799Z,2.65
2023-04-14T00:39:22.903Z,3.30
2023-04-14T00:44:26.544Z,3.05
2023-04-14T00:49:30.187Z,3.03
2023-04-14T00:54:36.485Z,3.13
2023-04-14T00:59:39.784Z,2.72
2023-04-14T01:04:53.771Z,3.25
2023-04-14T01:10:01.230Z,2.83
2023-04-14T01:15:13.351Z,2.90
2023-04-14T01:20:24.348Z,2.92
2023-04-14T01:26:11.940Z,3.30
2023-04-14T01:31:26.752Z,3.13
2023-04-14T01:36:38.915Z,2.90
2023-04-14T01:41:48.372Z,2.50
2023-04-14T01:46:57.727Z,3.03
2023-04-14T01:52:02.318Z,2.80
2023-04-14T01:57:08.228Z,2.55
2023-04-14T02:02:15.283Z,2.42
2023-04-14T02:07:20.798Z,3.15
2023-04-14T02:12:27.995Z,2.60
2023-04-14T02:17:33.774Z,2.67
2023-04-14T02:22:37.512Z,2.50
2023-04-14T02:27:47.498Z,2.78
2023-04-14T02:33:03.189Z,2.47
2023-04-14T02:38:09.696Z,2.60
2023-04-14T02:43:15.524Z,3.25
2023-04-14T02:48:22.756Z,2.33
2023-04-14T02:53:29.448Z,2.47
2023-04-14T02:58:33.285Z,2.80
2023-04-14T03:03:38.822Z,2.67
2023-04-14T03:08:42.590Z,2.33
2023-04-14T03:13:46.947Z,2.63
2023-04-14T03:18:54.578Z,2.93
2023-04-14T03:23:58.855Z,3.45
2023-04-14T03:29:04.911Z,3.07
2023-04-14T03:34:10.866Z,3.38
2023-04-14T03:39:14.996Z,3.55
2023-04-14T03:44:19.827Z,2.27
2023-04-14T03:49:25.453Z,2.00
2023-04-14T03:54:32.533Z,2.00
2023-04-14T03:59:37.865Z,2.10
2023-04-14T04:04:43.535Z,2.15
2023-04-14T04:09:48.644Z,1.73
2023-04-14T04:19:58.666Z,2.13
2023-04-14T04:25:02.202Z,2.03
2023-04-14T04:30:09.304Z,1.98
2023-04-14T04:35:14.377Z,2.33
2023-04-14T04:45:37.827Z,2.50
2023-04-14T04:50:42.843Z,2.47
2023-04-14T04:55:46.196Z,2.50
2023-04-14T05:00:49.364Z,2.00
2023-04-14T05:05:53.856Z,2.05
2023-04-14T05:10:57.002Z,2.28
2023-04-14T05:16:05.035Z,1.77
2023-04-14T05:21:11.575Z,2.15
2023-04-14T05:26:38.891Z,1.88
2023-04-14T05:31:38.461Z,2.03
2023-04-14T05:36:43.469Z,1.60
2023-04-14T05:46:49.820Z,1.80
2023-04-14T05:51:56.247Z,1.80
2023-04-14T05:56:59.608Z,1.85
2023-04-14T06:02:06.902Z,1.63
2023-04-14T06:07:14.569Z,1.67
2023-04-14T06:12:17.816Z,2.35
2023-04-14T06:17:22.443Z,1.65
2023-04-14T06:22:29.522Z,2.15
2023-04-14T06:27:33.834Z,1.98
2023-04-14T06:32:38.033Z,1.63
2023-04-14T06:37:42.924Z,1.90
2023-04-14T06:42:46.172Z,2.28
2023-04-14T06:47:49.497Z,2.00
2023-04-14T06:52:55.013Z,2.30
2023-04-14T06:57:58.255Z,2.33
2023-04-14T07:03:01.622Z,1.98
2023-04-14T07:08:08.863Z,1.55
2023-04-14T07:13:12.051Z,1.77
2023-04-14T07:18:15.463Z,2.22
2023-04-14T07:23:20.097Z,2.28
2023-04-14T07:28:25.225Z,2.67
2023-04-14T07:33:32.208Z,3.03
2023-04-14T07:38:37.576Z,2.67
2023-04-14T07:43:41.715Z,1.80
2023-04-14T07:48:44.850Z,1.60
2023-04-14T07:53:50.178Z,2.75
2023-04-14T07:58:53.882Z,3.88
2023-04-14T08:03:57.894Z,4.00
2023-04-14T08:09:03.543Z,3.80
2023-04-14T08:14:06.897Z,3.53
2023-04-14T08:19:10.052Z,3.85
2023-04-14T08:24:14.613Z,4.05
2023-04-14T08:29:17.738Z,5.00
2023-04-14T08:34:28.282Z,4.93
2023-04-14T08:39:33.401Z,3.97
2023-04-14T08:44:37.508Z,3.78
2023-04-14T08:49:42.977Z,3.30
2023-04-14T08:54:50.171Z,2.00
2023-04-14T08:59:53.859Z,2.20
2023-04-14T09:04:58.740Z,2.58
2023-04-14T09:15:08.456Z,2.35
2023-04-14T09:20:34.768Z,2.55
2023-04-14T09:25:39.075Z,2.07
2023-04-14T09:30:43.300Z,3.30
2023-04-14T09:35:48.636Z,3.23
2023-04-14T09:40:54.913Z,2.50
2023-04-14T09:46:05.466Z,2.22
2023-04-14T09:51:10.771Z,2.40
2023-04-14T09:56:16.002Z,2.20
2023-04-14T10:01:21.444Z,1.77
2023-04-14T10:06:26.914Z,2.00
2023-04-14T10:11:32.807Z,6.18
2023-04-14T10:16:36.330Z,4.22
2023-04-14T10:21:39.573Z,2.47
2023-04-14T10:26:47.310Z,2.00
2023-04-14T10:31:55.118Z,1.73
2023-04-14T10:37:13.291Z,1.73
2023-04-14T10:42:17.888Z,1.60
2023-04-14T10:47:25.317Z,1.30
2023-04-14T10:52:34.820Z,1.50
2023-04-14T10:57:44.913Z,1.50
2023-04-14T11:02:57.224Z,1.48
2023-04-14T11:08:03.227Z,1.80
2023-04-14T11:13:13.099Z,1.35
2023-04-14T11:18:17.989Z,1.83
2023-04-14T11:23:28.337Z,2.08
2023-04-14T11:28:34.543Z,1.92
2023-04-14T11:33:39.941Z,1.52
2023-04-14T11:38:44.110Z,1.70
2023-04-14T11:43:49.054Z,1.73
2023-04-14T11:48:56.349Z,2.00
2023-04-14T11:54:00.869Z,2.10
2023-04-14T11:59:06.795Z,2.05
2023-04-14T12:04:10.717Z,2.33
2023-04-14T12:09:13.939Z,3.17
2023-04-14T12:14:20.162Z,2.95
2023-04-14T12:19:23.339Z,3.05
2023-04-14T12:24:34.127Z,3.03
2023-04-14T12:29:38.990Z,3.75
2023-04-14T12:39:52.006Z,2.95
2023-04-14T12:44:57.915Z,3.10
2023-04-14T12:50:02.569Z,3.65
2023-04-14T12:55:06.830Z,2.83
2023-04-14T13:00:12.919Z,2.83
2023-04-14T13:05:16.112Z,2.80
2023-04-14T13:10:19.323Z,2.80
2023-04-14T13:16:09.760Z,3.78
2023-04-14T13:20:54.041Z,3.90
2023-04-14T13:25:57.564Z,3.95
2023-04-14T13:31:02.053Z,3.90
2023-04-14T13:36:05.621Z,3.95
2023-04-14T13:41:08.838Z,4.20
2023-04-14T13:46:13.479Z,3.83
2023-04-14T13:56:22.781Z,3.90
2023-04-14T14:01:27.599Z,4.43
2023-04-14T14:06:31.411Z,4.53
2023-04-14T14:11:34.757Z,4.38
2023-04-14T14:16:39.389Z,5.90
2023-04-14T14:21:44.081Z,4.65
2023-04-14T14:26:47.242Z,5.75
2023-04-14T14:31:51.860Z,5.55
2023-04-14T14:36:55.395Z,4.72
2023-04-14T14:41:58.682Z,4.22
2023-04-14T14:47:03.421Z,3.20
2023-04-14T14:52:07.389Z,2.40
2023-04-14T14:57:10.449Z,2.47
2023-04-14T15:02:15.198Z,2.45
2023-04-14T15:12:24.628Z,2.72
2023-04-14T15:17:32.193Z,2.30
2023-04-14T15:22:36.790Z,1.85
2023-04-14T15:27:40.984Z,1.70
2023-04-14T15:32:47.064Z,1.37
2023-04-14T15:37:50.458Z,1.00
2023-04-14T15:42:54.397Z,1.02
2023-04-14T15:47:58.979Z,1.10
2023-04-14T15:53:02.111Z,1.13
2023-04-14T15:58:05.525Z,1.27
2023-04-14T16:03:11.969Z,1.10
2023-04-14T16:08:15.888Z,0.90
2023-04-14T16:13:19.089Z,1.02
2023-04-14T16:18:23.749Z,0.90
2023-04-14T16:23:29.055Z,0.90
2023-04-14T16:28:32.236Z,0.90
2023-04-14T16:33:36.818Z,0.80
2023-04-14T16:38:40.353Z,0.60
2023-04-14T16:43:43.493Z,0.60
2023-04-14T16:48:48.117Z,0.60
2023-04-14T16:53:51.963Z,0.52
2023-04-14T16:58:55.181Z,0.73
2023-04-14T17:04:00.042Z,0.77
2023-04-14T17:09:03.658Z,0.60
2023-04-14T17:14:08.283Z,0.70
2023-04-14T17:24:16.085Z,0.70
2023-04-14T17:29:19.285Z,0.77
2023-04-14T17:34:24.011Z,0.82
2023-04-14T17:39:28.444Z,0.98
2023-04-14T17:44:33.793Z,0.85
2023-04-14T17:49:38.459Z,1.00
2023-04-14T17:54:41.793Z,0.98
2023-04-14T17:59:46.076Z,1.10
2023-04-14T18:04:50.800Z,1.17
2023-04-14T18:09:54.875Z,1.08
2023-04-14T18:14:58.138Z,1.30
2023-04-14T18:20:05.065Z,1.10
2023-04-14T18:25:09.290Z,1.27
2023-04-14T18:30:12.982Z,1.60
2023-04-14T18:35:17.830Z,1.92
2023-04-14T18:45:24.648Z,1.90
2023-04-14T18:50:30.762Z,2.08
2023-04-14T18:55:45.072Z,2.53
2023-04-14T19:00:49.797Z,3.00
2023-04-14T19:05:55.648Z,2.72
2023-04-14T19:10:59.556Z,2.65
2023-04-14T19:16:08.551Z,2.55
2023-04-14T19:21:13.559Z,2.50
2023-04-14T19:26:18.235Z,3.65
2023-04-14T19:31:21.729Z,3.70
2023-04-14T19:36:26.470Z,2.90
2023-04-14T19:41:29.753Z,3.58
2023-04-14T19:46:33.277Z,3.67
2023-04-14T19:51:38.215Z,3.90
2023-04-14T19:56:41.596Z,4.05
2023-04-14T20:01:45.351Z,4.10
2023-04-14T20:06:50.143Z,3.80
2023-04-14T20:11:53.813Z,4.20
2023-04-14T20:16:57.324Z,3.78
2023-04-14T20:22:02.109Z,4.20
2023-04-14T20:27:05.602Z,4.25
2023-04-14T20:32:09.571Z,4.07
2023-04-14T20:37:14.238Z,3.83
2023-04-14T20:42:17.638Z,4.00
2023-04-14T20:47:20.988Z,4.22
2023-04-14T20:52:26.650Z,4.15
2023-04-14T20:57:29.944Z,4.20
2023-04-14T21:02:33.262Z,5.15
2023-04-14T21:07:39.914Z,5.28
2023-04-14T21:12:54.208Z,5.60
2023-04-14T21:18:06.423Z,6.60
2023-04-14T21:23:11.009Z,5.97
2023-04-14T21:28:14.169Z,6.20
2023-04-14T21:33:17.391Z,6.55
2023-04-14T21:38:22.024Z,7.22
2023-04-14T21:43:25.385Z,6.22
2023-04-14T21:48:28.940Z,6.10
2023-04-14T21:53:33.889Z,5.35
2023-04-14T22:03:41.796Z,12.05
2023-04-14T22:13:49.873Z,13.82
2023-04-14T22:18:54.079Z,7.25
2023-04-14T22:23:58.841Z,6.17
2023-04-14T22:29:02.447Z,6.45
2023-04-14T22:34:05.953Z,6.30
2023-04-14T22:39:10.505Z,6.38
2023-04-14T22:44:13.717Z,7.22
2023-04-14T22:49:16.840Z,5.97
2023-04-14T22:54:21.387Z,4.90
2023-04-14T22:59:26.659Z,5.80
2023-04-14T23:04:31.509Z,6.28
2023-04-14T23:09:36.091Z,6.63
2023-04-14T23:14:39.217Z,13.98
2023-04-14T23:19:42.350Z,12.23
2023-04-14T23:24:47.215Z,9.88
2023-04-14T23:34:53.227Z,11.45
2023-04-14T23:39:57.852Z,8.93
2023-04-14T23:45:01.501Z,5.85
2023-04-14T23:50:04.774Z,4.70
2023-04-14T23:55:10.281Z,5.72
